Time;durP1;ratioP1;P1;durP2;ratioP2;P2;SDS_P1;SDS_P2;PMS_P1;PMS_P2;Temp;Humidity;BMP_temperature;BMP_pressure;BME280_temperature;BME280_humidity;BME280_pressure;Samples;Min_cycle;Max_cycle;Signal;HPM_P1;HPM_P2
2022/09/18 00:02:12;;;;;;;2.70;0.90;;;9.50;99.90;;;;;;5027841;28;21192;-75
2022/09/18 00:04:39;;;;;;;11.00;0.93;;;9.50;99.90;;;;;;5027272;28;20648;-76
2022/09/18 00:07:06;;;;;;;0.60;0.40;;;9.50;99.90;;;;;;5027960;28;20646;-76
2022/09/18 00:09:32;;;;;;;0.53;0.53;;;9.40;99.90;;;;;;5027261;28;20634;-76
2022/09/18 00:11:59;;;;;;;0.70;0.47;;;9.40;99.90;;;;;;5027829;28;20631;-76
2022/09/18 00:14:27;;;;;;;0.97;0.53;;;9.50;99.90;;;;;;5026469;28;21566;-77
2022/09/18 00:16:54;;;;;;;1.03;1.00;;;9.40;99.90;;;;;;5027605;28;21205;-76
2022/09/18 00:19:21;;;;;;;0.63;0.60;;;9.40;99.90;;;;;;5027505;28;20637;-76
2022/09/18 00:21:50;;;;;;;0.87;0.87;;;9.40;99.90;;;;;;5027325;28;20628;-76
2022/09/18 00:24:17;;;;;;;0.70;0.70;;;9.40;99.90;;;;;;5026953;28;20643;-76
2022/09/18 00:26:45;;;;;;;1.00;1.00;;;9.50;99.90;;;;;;5027894;28;20693;-77
2022/09/18 00:29:13;;;;;;;0.47;0.47;;;9.40;99.90;;;;;;5027620;28;20641;-77
2022/09/18 00:31:41;;;;;;;1.30;0.60;;;9.40;99.90;;;;;;5027813;28;20730;-77
2022/09/18 00:34:11;;;;;;;2.20;0.90;;;9.40;99.90;;;;;;5027782;28;20650;-77
2022/09/18 00:36:39;;;;;;;0.60;0.60;;;9.20;99.90;;;;;;5026972;28;20636;-77
2022/09/18 00:39:06;;;;;;;3.60;1.20;;;9.40;99.90;;;;;;5028454;28;20671;-76
2022/09/18 00:41:35;;;;;;;0.83;0.80;;;9.30;99.90;;;;;;5027040;28;20624;-77
2022/09/18 00:44:40;;;;;;;1.13;1.03;;;9.30;99.90;;;;;;5027859;28;20631;-77
2022/09/18 00:47:28;;;;;;;0.87;0.87;;;9.40;99.90;;;;;;4965242;28;20803;-76
2022/09/18 00:50:03;;;;;;;0.73;0.70;;;9.30;99.90;;;;;;4966353;28;20630;-76
2022/09/18 00:52:35;;;;;;;0.80;0.80;;;9.40;99.90;;;;;;5007382;28;20642;-76
2022/09/18 00:55:07;;;;;;;0.80;0.80;;;9.40;99.90;;;;;;5027796;28;20638;-76
2022/09/18 00:57:39;;;;;;;1.10;1.00;;;9.40;99.90;;;;;;5026359;28;20670;-76
2022/09/18 01:00:10;;;;;;;0.87;0.60;;;9.40;99.90;;;;;;5017981;28;20635;-77
2022/09/18 01:02:39;;;;;;;0.50;0.50;;;9.50;99.90;;;;;;5021850;28;20731;-75
2022/09/18 01:05:07;;;;;;;0.83;0.80;;;9.40;99.90;;;;;;5025849;28;20643;-76
2022/09/18 01:07:47;;;;;;;1.50;0.80;;;9.40;99.90;;;;;;5013291;28;20620;-77
2022/09/18 01:10:28;;;;;;;0.90;0.90;;;9.50;99.90;;;;;;5027744;28;20733;-76
2022/09/18 01:12:58;;;;;;;0.80;0.80;;;9.50;99.90;;;;;;5028091;28;21463;-76
2022/09/18 01:15:40;;;;;;;1.00;0.90;;;9.50;99.90;;;;;;5026922;28;20639;-76
2022/09/18 01:18:17;;;;;;;0.70;0.70;;;9.50;99.90;;;;;;5027513;28;21017;-78
2022/09/18 01:21:04;;;;;;;1.03;0.93;;;9.50;99.90;;;;;;5028607;28;20633;-76
2022/09/18 01:23:57;;;;;;;0.50;0.43;;;9.50;99.90;;;;;;5028125;28;20662;-76
2022/09/18 01:26:40;;;;;;;0.97;0.60;;;9.50;99.90;;;;;;5026880;28;20608;-76
2022/09/18 01:29:13;;;;;;;1.10;1.07;;;9.40;99.90;;;;;;5028596;28;20631;-76
2022/09/18 01:31:46;;;;;;;0.73;0.50;;;9.60;99.90;;;;;;5028182;28;20627;-77
2022/09/18 01:34:20;;;;;;;1.10;1.00;;;9.30;99.90;;;;;;5027044;28;20631;-77
2022/09/18 01:36:53;;;;;;;0.67;0.67;;;9.30;99.90;;;;;;5024999;28;21316;-76
2022/09/18 01:39:25;;;;;;;0.90;0.90;;;9.40;99.90;;;;;;5027881;28;20733;-76
2022/09/18 01:41:54;;;;;;;0.90;0.90;;;9.40;99.90;;;;;;5019970;28;21062;-75
2022/09/18 01:44:27;;;;;;;1.60;0.83;;;9.40;99.90;;;;;;5031484;28;20705;-77
2022/09/18 01:46:57;;;;;;;1.07;0.90;;;9.40;99.90;;;;;;5030995;28;21038;-78
2022/09/18 01:49:32;;;;;;;1.13;0.83;;;9.40;99.90;;;;;;5030746;28;21286;-76
2022/09/18 01:52:06;;;;;;;0.80;0.80;;;9.40;99.90;;;;;;5030595;28;20618;-77
2022/09/18 01:54:38;;;;;;;1.10;0.50;;;9.40;99.90;;;;;;5030533;28;21221;-75
2022/09/18 01:57:10;;;;;;;1.90;1.30;;;9.40;99.90;;;;;;5031645;28;20627;-77
2022/09/18 01:59:43;;;;;;;0.60;0.60;;;9.40;99.90;;;;;;5022536;28;21293;-76
2022/09/18 02:02:15;;;;;;;2.20;0.67;;;9.40;99.90;;;;;;5029517;28;21142;-77
2022/09/18 02:04:46;;;;;;;2.90;1.83;;;9.40;99.90;;;;;;5022895;28;20623;-76
2022/09/18 02:07:18;;;;;;;0.60;0.60;;;9.40;99.90;;;;;;5011122;28;20719;-76
2022/09/18 02:09:45;;;;;;;0.50;0.40;;;9.40;99.90;;;;;;5030713;28;20666;-77
2022/09/18 02:12:18;;;;;;;0.53;0.53;;;9.40;99.90;;;;;;5030135;28;20682;-77
2022/09/18 02:14:50;;;;;;;0.83;0.83;;;9.50;99.90;;;;;;5029741;28;20693;-77
2022/09/18 02:17:21;;;;;;;0.70;0.70;;;9.40;99.90;;;;;;5030094;28;20626;-77
2022/09/18 02:19:53;;;;;;;0.63;0.63;;;9.50;99.90;;;;;;5030395;28;20749;-77
2022/09/18 02:22:23;;;;;;;0.50;0.50;;;9.40;99.90;;;;;;5030319;28;20649;-76
2022/09/18 02:24:54;;;;;;;1.57;0.57;;;9.40;99.90;;;;;;5009890;28;20627;-78
2022/09/18 02:27:24;;;;;;;0.73;0.73;;;9.40;99.90;;;;;;5020083;28;20654;-77
2022/09/18 02:29:53;;;;;;;0.87;0.87;;;9.50;99.90;;;;;;5030476;28;21204;-77
2022/09/18 02:32:21;;;;;;;3.90;0.80;;;9.40;99.90;;;;;;5030646;28;20975;-76
2022/09/18 02:34:48;;;;;;;0.50;0.30;;;9.40;99.90;;;;;;5030485;28;21021;-77
2022/09/18 02:37:28;;;;;;;0.40;0.40;;;9.50;99.90;;;;;;5029779;28;20718;-76
2022/09/18 02:40:09;;;;;;;0.70;0.70;;;9.40;99.90;;;;;;5028498;28;20694;-77
2022/09/18 02:42:44;;;;;;;1.13;1.03;;;9.50;99.90;;;;;;5030113;28;21374;-76
2022/09/18 02:45:26;;;;;;;0.73;0.57;;;9.50;99.90;;;;;;5030463;28;20632;-75
2022/09/18 02:48:10;;;;;;;0.63;0.63;;;9.50;99.90;;;;;;5031874;28;21298;-77
2022/09/18 02:50:45;;;;;;;0.40;0.40;;;9.50;99.90;;;;;;5031906;28;20726;-77
2022/09/18 02:53:21;;;;;;;0.73;0.73;;;9.50;99.90;;;;;;5030942;28;20709;-78
2022/09/18 02:55:53;;;;;;;0.70;0.57;;;9.40;99.90;;;;;;5010429;28;21174;-76
2022/09/18 02:58:26;;;;;;;1.00;1.00;;;9.40;99.90;;;;;;5021110;28;21206;-77
2022/09/18 03:01:00;;;;;;;1.07;0.70;;;9.50;99.90;;;;;;5031050;28;20682;-77
2022/09/18 03:03:29;;;;;;;0.37;0.37;;;9.50;99.90;;;;;;5029455;28;20957;-76
2022/09/18 03:05:57;;;;;;;0.50;0.50;;;9.50;99.90;;;;;;5031586;28;20746;-77
2022/09/18 03:08:24;;;;;;;8.10;0.90;;;9.50;99.90;;;;;;5030924;28;20630;-77
2022/09/18 03:10:51;;;;;;;0.80;0.77;;;9.50;99.90;;;;;;5028508;28;20672;-76
2022/09/18 03:13:18;;;;;;;0.53;0.53;;;9.50;99.90;;;;;;5029068;28;20635;-77
2022/09/18 03:15:44;;;;;;;0.63;0.63;;;9.50;99.90;;;;;;5029745;28;20730;-77
2022/09/18 03:18:13;;;;;;;1.03;1.00;;;9.60;99.90;;;;;;5028534;28;20647;-77
2022/09/18 03:20:41;;;;;;;2.40;0.80;;;9.50;99.90;;;;;;5028591;28;20619;-76
2022/09/18 03:23:08;;;;;;;0.60;0.60;;;9.40;99.90;;;;;;5028039;28;20647;-77
2022/09/18 03:25:35;;;;;;;0.70;0.70;;;9.50;99.90;;;;;;5028172;28;20648;-77
2022/09/18 03:28:02;;;;;;;0.77;0.60;;;9.40;99.90;;;;;;5028746;28;20681;-76
2022/09/18 03:30:29;;;;;;;0.60;0.60;;;9.50;99.90;;;;;;5028711;28;20670;-77
2022/09/18 03:32:56;;;;;;;1.70;1.07;;;9.40;99.90;;;;;;5028733;28;20627;-76
2022/09/18 03:35:24;;;;;;;0.43;0.43;;;9.40;99.90;;;;;;5027611;28;20639;-76
2022/09/18 03:37:51;;;;;;;0.80;0.80;;;9.40;99.90;;;;;;5027391;28;21404;-77
2022/09/18 03:40:18;;;;;;;0.60;0.60;;;9.30;99.90;;;;;;5027145;28;21013;-77
2022/09/18 03:42:45;;;;;;;1.03;1.00;;;9.30;99.90;;;;;;5028187;28;20993;-76
2022/09/18 03:45:12;;;;;;;0.60;0.60;;;9.30;99.90;;;;;;5027932;28;20726;-77
2022/09/18 03:47:39;;;;;;;2.23;0.90;;;9.40;99.90;;;;;;5027933;28;21406;-76
2022/09/18 03:50:07;;;;;;;0.90;0.43;;;9.40;99.90;;;;;;5027802;28;21223;-77
2022/09/18 03:52:35;;;;;;;0.50;0.50;;;9.40;99.90;;;;;;5027520;28;20619;-76
2022/09/18 03:55:02;;;;;;;1.17;0.80;;;9.40;99.90;;;;;;5027451;28;21054;-76
2022/09/18 03:57:29;;;;;;;0.67;0.53;;;9.40;99.90;;;;;;5028052;28;20620;-77
2022/09/18 03:59:56;;;;;;;0.60;0.60;;;9.40;99.90;;;;;;5023731;28;20667;-76
2022/09/18 04:02:23;;;;;;;0.40;0.40;;;9.40;99.90;;;;;;5024270;28;20632;-76
2022/09/18 04:04:50;;;;;;;0.43;0.40;;;9.50;99.90;;;;;;5021214;28;20685;-77
2022/09/18 04:07:17;;;;;;;0.70;0.60;;;9.40;99.90;;;;;;5027574;28;21236;-76
2022/09/18 04:09:46;;;;;;;0.60;0.60;;;9.50;99.90;;;;;;5027830;28;20631;-77
2022/09/18 04:12:12;;;;;;;1.00;1.00;;;9.50;99.90;;;;;;5027499;28;20636;-77
2022/09/18 04:14:39;;;;;;;0.40;0.30;;;9.50;99.90;;;;;;5027624;28;20626;-77
2022/09/18 04:17:06;;;;;;;0.60;0.57;;;9.50;99.90;;;;;;5027892;28;20635;-77
2022/09/18 04:19:33;;;;;;;0.60;0.60;;;9.50;99.90;;;;;;5027151;28;20659;-77
2022/09/18 04:21:59;;;;;;;0.40;0.40;;;9.50;99.90;;;;;;5027986;28;20627;-77
2022/09/18 04:24:26;;;;;;;0.70;0.50;;;9.40;99.90;;;;;;5028644;28;20627;-76
2022/09/18 04:26:54;;;;;;;0.47;0.47;;;9.40;99.90;;;;;;5028938;28;20758;-77
2022/09/18 04:29:21;;;;;;;0.43;0.40;;;9.50;99.90;;;;;;5029191;28;20627;-77
2022/09/18 04:31:48;;;;;;;0.40;0.40;;;9.40;99.90;;;;;;5028576;28;20639;-77
2022/09/18 04:34:15;;;;;;;0.70;0.70;;;9.50;99.90;;;;;;5027902;28;20637;-77
2022/09/18 04:36:42;;;;;;;0.40;0.37;;;9.50;99.90;;;;;;5029647;28;20654;-76
2022/09/18 04:39:09;;;;;;;0.73;0.73;;;9.40;99.90;;;;;;5027554;28;20659;-76
2022/09/18 04:41:36;;;;;;;0.30;0.20;;;9.40;99.90;;;;;;5015748;28;20632;-79
2022/09/18 04:47:07;;;;;;;0.87;0.70;;;9.40;99.90;;;;;;5019968;28;20646;-81
2022/09/18 04:49:36;;;;;;;0.40;0.40;;;9.40;99.90;;;;;;5022724;28;20698;-79
2022/09/18 04:52:13;;;;;;;0.30;0.30;;;9.50;99.90;;;;;;5016238;28;21341;-80
2022/09/18 04:54:42;;;;;;;0.63;0.53;;;9.40;99.90;;;;;;5016310;28;20651;-80
2022/09/18 04:57:09;;;;;;;0.57;0.57;;;9.40;99.90;;;;;;5017485;28;21196;-79
2022/09/18 04:59:37;;;;;;;2.97;0.93;;;9.50;99.90;;;;;;5018197;28;20652;-78
2022/09/18 05:02:04;;;;;;;0.70;0.70;;;9.50;99.90;;;;;;5015237;28;20621;-78
2022/09/18 05:04:32;;;;;;;1.17;1.10;;;9.50;99.90;;;;;;5014521;28;20623;-80
2022/09/18 05:06:59;;;;;;;3.80;0.90;;;9.40;99.90;;;;;;5016099;28;20643;-79
2022/09/18 05:09:29;;;;;;;0.83;0.53;;;9.40;99.90;;;;;;5019022;28;20630;-81
2022/09/18 05:11:58;;;;;;;8.80;0.87;;;9.40;99.90;;;;;;5018626;28;20647;-79
2022/09/18 05:14:33;;;;;;;1.10;1.00;;;9.40;99.90;;;;;;5015321;28;20700;-81
2022/09/18 05:17:08;;;;;;;0.60;0.50;;;9.40;99.90;;;;;;5019733;28;20639;-82
2022/09/18 05:22:25;;;;;;;0.60;0.60;;;9.50;99.90;;;;;;5018997;28;20615;-80
2022/09/18 05:24:52;;;;;;;1.00;0.57;;;9.60;99.90;;;;;;5022695;28;21075;-81
2022/09/18 05:27:33;;;;;;;0.50;0.50;;;9.50;99.90;;;;;;5016297;28;20629;-81
2022/09/18 05:30:02;;;;;;;1.07;0.47;;;9.60;99.90;;;;;;5022560;28;20627;-82
2022/09/18 05:32:36;;;;;;;0.50;0.50;;;9.50;99.90;;;;;;5025509;28;21229;-81
2022/09/18 05:35:17;;;;;;;0.53;0.53;;;9.50;99.90;;;;;;5021394;28;20644;-81
2022/09/18 05:38:04;;;;;;;1.20;1.10;;;9.70;99.90;;;;;;5025710;28;20723;-80
2022/09/18 05:40:33;;;;;;;0.50;0.50;;;9.60;99.90;;;;;;5018235;28;20667;-79
2022/09/18 05:43:01;;;;;;;1.27;0.63;;;9.50;99.90;;;;;;5025450;28;21163;-79
2022/09/18 05:45:28;;;;;;;0.57;0.57;;;9.50;99.90;;;;;;5016092;28;21388;-81
2022/09/18 05:47:58;;;;;;;1.33;1.20;;;9.80;99.90;;;;;;5022301;28;20631;-81
2022/09/18 05:50:27;;;;;;;0.67;0.67;;;9.60;99.90;;;;;;5020407;28;20628;-79
2022/09/18 05:52:58;;;;;;;0.40;0.40;;;9.60;99.90;;;;;;5019739;28;20616;-78
2022/09/18 05:55:27;;;;;;;0.50;0.50;;;9.60;99.90;;;;;;5021810;28;20620;-79
2022/09/18 05:57:54;;;;;;;0.90;0.87;;;9.60;99.90;;;;;;5020758;28;20974;-79
2022/09/18 06:00:21;;;;;;;0.73;0.73;;;9.70;99.90;;;;;;5019997;28;20663;-79
2022/09/18 06:02:53;;;;;;;1.17;1.03;;;9.60;99.90;;;;;;5019235;28;20617;-78
2022/09/18 06:05:45;;;;;;;0.33;0.33;;;9.60;99.90;;;;;;5017715;28;21271;-81
2022/09/18 06:08:17;;;;;;;0.70;0.70;;;9.80;99.90;;;;;;5048791;28;20645;-81
2022/09/18 06:11:21;;;;;;;0.70;0.70;;;9.70;99.90;;;;;;5020996;28;21141;-82
2022/09/18 06:13:50;;;;;;;1.37;1.00;;;9.70;99.90;;;;;;5023545;28;20612;-80
2022/09/18 06:16:17;;;;;;;0.70;0.70;;;9.60;99.90;;;;;;5020438;28;21396;-80
2022/09/18 06:18:47;;;;;;;0.87;0.87;;;9.60;99.90;;;;;;5021959;28;20635;-80
2022/09/18 06:21:15;;;;;;;1.03;0.80;;;9.70;99.90;;;;;;5018334;28;20640;-79
2022/09/18 06:23:42;;;;;;;0.80;0.80;;;9.50;99.90;;;;;;5018940;28;21166;-79
2022/09/18 06:26:10;;;;;;;0.90;0.70;;;9.70;99.90;;;;;;5019266;28;20645;-79
2022/09/18 06:28:37;;;;;;;1.90;0.60;;;9.70;99.90;;;;;;5025033;28;20634;-79
2022/09/18 06:31:04;;;;;;;1.30;1.00;;;9.70;99.90;;;;;;5029928;28;20619;-78
2022/09/18 06:33:32;;;;;;;3.57;1.00;;;9.70;99.90;;;;;;5029813;28;21032;-78
2022/09/18 06:35:59;;;;;;;0.70;0.67;;;9.70;99.90;;;;;;5028067;28;20623;-78
2022/09/18 06:38:27;;;;;;;0.80;0.80;;;9.80;99.90;;;;;;5029818;28;20639;-79
2022/09/18 06:40:54;;;;;;;0.80;0.80;;;9.70;99.90;;;;;;5029060;28;21627;-79
2022/09/18 06:43:21;;;;;;;0.70;0.70;;;9.70;99.90;;;;;;5028977;28;20797;-79
2022/09/18 06:45:52;;;;;;;1.93;1.67;;;9.70;99.90;;;;;;5023914;28;20952;-79
2022/09/18 06:48:19;;;;;;;1.00;1.00;;;9.80;99.90;;;;;;5021383;28;20640;-78
2022/09/18 06:50:52;;;;;;;1.70;0.87;;;9.70;99.90;;;;;;5020798;28;20635;-77
2022/09/18 06:53:19;;;;;;;1.33;1.23;;;9.70;99.90;;;;;;5018832;28;21181;-76
2022/09/18 06:55:47;;;;;;;1.37;1.07;;;9.80;99.90;;;;;;5027479;28;20636;-77
2022/09/18 06:58:16;;;;;;;1.63;0.80;;;9.80;99.90;;;;;;5027353;28;20701;-77
2022/09/18 07:00:42;;;;;;;1.00;0.80;;;9.90;99.90;;;;;;5025915;28;20674;-77
2022/09/18 07:03:09;;;;;;;0.87;0.87;;;9.80;99.90;;;;;;5026392;28;20986;-77
2022/09/18 07:05:39;;;;;;;1.07;1.00;;;9.90;99.90;;;;;;5026771;28;20634;-77
2022/09/18 07:08:06;;;;;;;1.03;0.93;;;9.90;99.90;;;;;;5027562;28;20643;-77
2022/09/18 07:10:33;;;;;;;1.33;1.33;;;10.00;99.90;;;;;;5028151;28;20643;-77
2022/09/18 07:13:01;;;;;;;1.20;1.10;;;10.00;99.90;;;;;;5028246;28;20635;-77
2022/09/18 07:15:29;;;;;;;1.10;0.93;;;10.10;99.90;;;;;;5028250;28;20638;-77
2022/09/18 07:17:56;;;;;;;0.87;0.87;;;10.10;99.90;;;;;;5029483;28;20666;-76
2022/09/18 07:20:23;;;;;;;1.20;1.10;;;10.20;99.90;;;;;;5030631;28;20658;-77
2022/09/18 07:22:53;;;;;;;1.10;1.10;;;10.20;99.90;;;;;;5028811;28;20741;-77
2022/09/18 07:25:21;;;;;;;0.93;0.93;;;10.20;99.90;;;;;;5027558;28;21235;-77
2022/09/18 07:27:48;;;;;;;0.80;0.80;;;10.20;99.90;;;;;;5029960;28;20619;-77
2022/09/18 07:30:16;;;;;;;1.13;0.40;;;10.10;99.90;;;;;;5028401;28;20639;-77
2022/09/18 07:32:43;;;;;;;1.60;1.33;;;10.20;99.90;;;;;;5027815;28;20629;-76
2022/09/18 07:35:10;;;;;;;0.73;0.73;;;10.20;99.90;;;;;;5027355;28;21047;-74
2022/09/18 07:37:37;;;;;;;2.00;1.07;;;10.20;99.90;;;;;;5027319;28;20627;-75
2022/09/18 07:40:05;;;;;;;0.80;0.80;;;10.30;99.90;;;;;;5027098;28;21344;-75
2022/09/18 07:42:32;;;;;;;1.27;1.13;;;10.30;99.90;;;;;;5029113;28;20726;-75
2022/09/18 07:44:59;;;;;;;1.17;0.80;;;10.40;99.90;;;;;;5028457;28;20758;-75
2022/09/18 07:47:27;;;;;;;1.07;0.90;;;10.30;99.90;;;;;;5027788;28;20623;-75
2022/09/18 07:49:54;;;;;;;1.30;0.77;;;10.30;99.90;;;;;;5028266;28;20631;-75
2022/09/18 07:52:21;;;;;;;2.60;1.47;;;10.30;99.90;;;;;;5027942;28;22551;-75
2022/09/18 07:54:48;;;;;;;0.90;0.90;;;10.30;99.90;;;;;;5028006;28;20624;-76
2022/09/18 07:57:15;;;;;;;0.67;0.63;;;10.30;99.90;;;;;;5028331;28;20619;-76
2022/09/18 07:59:42;;;;;;;1.30;1.00;;;10.30;99.90;;;;;;5025225;28;20722;-75
2022/09/18 08:02:10;;;;;;;0.83;0.80;;;10.30;99.90;;;;;;5025961;28;21071;-76
2022/09/18 08:04:38;;;;;;;0.47;0.47;;;10.40;99.90;;;;;;5026049;28;20979;-75
2022/09/18 08:07:05;;;;;;;0.80;0.80;;;10.40;99.90;;;;;;5027617;28;20701;-75
2022/09/18 08:09:32;;;;;;;1.27;1.17;;;10.50;99.90;;;;;;5028254;28;20626;-75
2022/09/18 08:11:59;;;;;;;1.10;1.03;;;10.50;99.90;;;;;;5027675;28;20999;-75
2022/09/18 08:14:26;;;;;;;0.80;0.80;;;10.50;99.90;;;;;;5027206;28;20692;-75
2022/09/18 08:16:53;;;;;;;1.40;1.17;;;10.40;99.90;;;;;;5027225;28;20623;-76
2022/09/18 08:19:20;;;;;;;1.33;1.13;;;10.40;99.90;;;;;;5027606;28;20619;-76
2022/09/18 08:21:48;;;;;;;1.20;1.10;;;10.40;99.90;;;;;;5027635;28;20682;-75
2022/09/18 08:24:16;;;;;;;1.17;1.13;;;10.40;99.90;;;;;;5025993;28;20634;-76
2022/09/18 08:26:42;;;;;;;1.00;0.77;;;10.40;99.90;;;;;;5028081;28;20635;-75
2022/09/18 08:29:09;;;;;;;0.97;0.77;;;10.40;99.90;;;;;;5027391;28;20734;-75
2022/09/18 08:31:36;;;;;;;5.03;0.87;;;10.40;99.90;;;;;;5026073;28;20631;-75
2022/09/18 08:34:03;;;;;;;0.70;0.70;;;10.40;99.90;;;;;;5027415;28;20641;-77
2022/09/18 08:36:30;;;;;;;0.90;0.90;;;10.30;99.90;;;;;;5027272;28;20623;-75
2022/09/18 08:38:58;;;;;;;1.47;1.37;;;10.40;99.90;;;;;;5027198;28;20634;-75
2022/09/18 08:41:43;;;;;;;1.00;1.00;;;10.50;99.90;;;;;;5027124;28;20671;-76
2022/09/18 08:44:12;;;;;;;1.37;1.27;;;10.50;99.90;;;;;;5024424;28;20629;-76
2022/09/18 08:46:43;;;;;;;5.17;2.60;;;10.60;99.90;;;;;;5024306;28;20631;-75
2022/09/18 08:49:22;;;;;;;9.10;4.77;;;10.60;99.90;;;;;;5027865;28;20665;-75
2022/09/18 08:51:54;;;;;;;3.80;3.37;;;10.70;99.90;;;;;;5030035;28;20626;-76
2022/09/18 08:54:38;;;;;;;4.57;3.50;;;10.60;99.90;;;;;;5029628;28;21169;-75
2022/09/18 08:57:11;;;;;;;6.00;4.70;;;10.70;99.90;;;;;;5024489;28;20623;-75
2022/09/18 08:59:42;;;;;;;9.10;3.53;;;10.70;99.90;;;;;;5030851;28;20633;-77
2022/09/18 09:02:20;;;;;;;30.43;12.60;;;10.70;99.90;;;;;;5026986;28;20621;-76
2022/09/18 09:04:48;;;;;;;15.10;4.87;;;10.70;99.90;;;;;;5021400;28;20633;-78
2022/09/18 09:07:30;;;;;;;11.83;7.03;;;10.70;99.90;;;;;;5024767;28;21042;-77
2022/09/18 09:10:17;;;;;;;4.30;2.00;;;10.70;99.90;;;;;;5023973;28;20620;-77
2022/09/18 09:12:52;;;;;;;3.07;1.50;;;10.80;99.90;;;;;;5020709;28;20616;-80
2022/09/18 09:15:30;;;;;;;15.73;6.00;;;10.80;99.90;;;;;;5019696;28;20616;-76
2022/09/18 09:18:08;;;;;;;24.10;12.30;;;10.80;99.90;;;;;;5020281;28;21020;-77
2022/09/18 09:20:49;;;;;;;6.20;4.53;;;10.80;99.90;;;;;;5023947;28;21343;-78
2022/09/18 09:23:22;;;;;;;2.40;2.17;;;10.90;99.90;;;;;;5022333;28;20723;-76
2022/09/18 09:26:02;;;;;;;1.43;1.20;;;10.90;99.90;;;;;;5019042;28;20624;-77
2022/09/18 09:28:33;;;;;;;2.33;2.13;;;11.00;99.90;;;;;;5021500;28;20620;-77
2022/09/18 09:31:03;;;;;;;1.63;1.50;;;11.00;99.90;;;;;;5020595;28;20722;-77
2022/09/18 09:33:35;;;;;;;1.50;1.40;;;11.00;99.90;;;;;;5021691;28;20631;-77
2022/09/18 09:36:07;;;;;;;2.33;2.00;;;11.00;99.90;;;;;;5016041;28;20636;-77
2022/09/18 09:38:46;;;;;;;1.80;1.53;;;11.00;99.90;;;;;;5011920;28;20711;-77
2022/09/18 09:41:28;;;;;;;2.70;2.50;;;11.10;99.90;;;;;;5019114;28;20678;-76
2022/09/18 09:44:03;;;;;;;2.13;1.93;;;11.20;99.90;;;;;;5026029;28;20643;-77
2022/09/18 09:46:51;;;;;;;1.10;1.10;;;11.10;99.90;;;;;;5021821;28;20630;-78
2022/09/18 09:49:23;;;;;;;1.37;1.37;;;11.20;99.90;;;;;;5015900;28;20612;-78
2022/09/18 09:51:57;;;;;;;1.07;1.03;;;11.40;99.90;;;;;;5020047;28;20650;-77
2022/09/18 09:54:25;;;;;;;0.80;0.80;;;11.30;99.90;;;;;;5023970;28;20646;-77
2022/09/18 09:57:02;;;;;;;0.60;0.60;;;11.40;99.90;;;;;;5023205;28;20637;-78
2022/09/18 09:59:36;;;;;;;1.30;0.97;;;11.50;99.90;;;;;;5016019;28;20650;-77
2022/09/18 10:02:26;;;;;;;0.60;0.60;;;11.70;99.90;;;;;;5014854;28;21641;-78
2022/09/18 10:04:57;;;;;;;1.20;1.10;;;11.90;99.90;;;;;;5020273;28;20616;-78
2022/09/18 10:07:30;;;;;;;1.43;1.33;;;12.10;99.90;;;;;;5020220;28;20993;-78
2022/09/18 10:10:02;;;;;;;0.73;0.73;;;12.10;99.90;;;;;;5022276;28;20623;-77
2022/09/18 10:12:34;;;;;;;1.17;1.17;;;12.20;99.90;;;;;;5021997;28;20632;-78
2022/09/18 10:15:15;;;;;;;0.90;0.90;;;12.20;99.90;;;;;;5020550;28;20628;-79
2022/09/18 10:17:43;;;;;;;2.60;1.63;;;12.60;99.90;;;;;;5020266;28;20884;-79
2022/09/18 10:20:16;;;;;;;1.73;1.63;;;12.60;99.90;;;;;;5022289;28;20623;-78
2022/09/18 10:22:43;;;;;;;1.07;1.03;;;12.70;99.90;;;;;;5016777;28;20628;-78
2022/09/18 10:25:19;;;;;;;1.73;1.30;;;12.80;99.90;;;;;;5012892;28;20627;-79
2022/09/18 10:27:47;;;;;;;0.90;0.90;;;12.90;99.90;;;;;;5021876;28;20633;-77
2022/09/18 10:30:14;;;;;;;1.33;1.23;;;12.80;99.90;;;;;;5019552;28;21185;-77
2022/09/18 10:32:42;;;;;;;3.90;2.20;;;12.80;99.90;;;;;;5021522;28;20826;-78
2022/09/18 10:35:42;;;;;;;2.20;1.00;;;12.80;99.90;;;;;;5019290;28;20636;-78
2022/09/18 10:38:31;;;;;;;0.67;0.63;;;12.90;99.30;;;;;;5023610;28;20634;-78
2022/09/18 10:41:11;;;;;;;0.57;0.57;;;12.80;99.90;;;;;;5026536;28;20672;-78
2022/09/18 10:43:50;;;;;;;1.27;1.17;;;12.80;99.90;;;;;;5023512;28;20633;-77
2022/09/18 10:46:23;;;;;;;2.37;2.17;;;12.90;99.90;;;;;;5024943;28;20663;-78
2022/09/18 10:48:50;;;;;;;2.10;0.60;;;13.10;99.20;;;;;;5030396;28;20627;-79
2022/09/18 10:51:20;;;;;;;0.63;0.53;;;13.00;99.40;;;;;;5035613;28;20634;-78
2022/09/18 10:54:03;;;;;;;1.10;1.00;;;13.00;98.90;;;;;;5030081;28;20628;-77
2022/09/18 10:56:31;;;;;;;2.20;0.70;;;13.10;97.80;;;;;;5028385;28;21251;-79
2022/09/18 10:59:28;;;;;;;0.60;0.60;;;13.20;98.90;;;;;;5030529;28;21161;-81
2022/09/18 11:01:56;;;;;;;1.53;0.67;;;13.40;98.90;;;;;;5026533;28;20694;-78
2022/09/18 11:04:23;;;;;;;0.67;0.67;;;13.30;96.30;;;;;;5030410;28;20628;-78
2022/09/18 11:06:51;;;;;;;1.03;0.90;;;13.30;96.50;;;;;;5033208;28;20623;-78
2022/09/18 11:09:23;;;;;;;0.40;0.40;;;13.30;96.50;;;;;;5027853;28;20635;-78
2022/09/18 11:11:50;;;;;;;0.50;0.47;;;13.30;96.20;;;;;;5032513;28;20631;-79
2022/09/18 11:14:25;;;;;;;1.17;0.87;;;13.30;96.10;;;;;;5026571;28;20705;-80
2022/09/18 11:17:06;;;;;;;3.50;1.23;;;13.40;96.50;;;;;;5032709;28;20639;-80
2022/09/18 11:19:37;;;;;;;2.70;2.50;;;13.40;96.90;;;;;;5028687;28;20739;-79
2022/09/18 11:22:06;;;;;;;1.50;0.77;;;13.40;96.50;;;;;;5025652;28;20751;-79
2022/09/18 11:24:36;;;;;;;0.70;0.60;;;13.50;96.60;;;;;;5026406;28;20778;-79
2022/09/18 11:27:15;;;;;;;0.70;0.50;;;13.60;97.10;;;;;;5026472;28;20625;-78
2022/09/18 11:29:44;;;;;;;0.70;0.63;;;13.80;95.20;;;;;;5026403;28;21034;-78
2022/09/18 11:32:24;;;;;;;0.70;0.70;;;13.80;95.20;;;;;;5026379;28;20715;-80
2022/09/18 11:34:54;;;;;;;0.70;0.50;;;13.80;94.40;;;;;;5022847;28;21316;-79
2022/09/18 11:37:34;;;;;;;0.33;0.33;;;13.80;93.20;;;;;;5023980;28;20739;-80
2022/09/18 11:40:04;;;;;;;0.50;0.37;;;13.90;95.10;;;;;;5026611;28;21196;-78
2022/09/18 11:42:31;;;;;;;0.67;0.63;;;13.70;93.10;;;;;;5024466;28;21129;-78
2022/09/18 11:45:19;;;;;;;0.50;0.40;;;13.90;94.60;;;;;;5025113;28;21254;-80
2022/09/18 11:47:52;;;;;;;0.50;0.50;;;14.30;95.00;;;;;;5020689;28;20977;-80
2022/09/18 11:50:21;;;;;;;0.50;0.50;;;14.20;94.60;;;;;;5019768;28;20731;-79
2022/09/18 11:52:53;;;;;;;0.50;0.30;;;14.30;93.60;;;;;;5024443;28;20723;-78
2022/09/18 11:55:31;;;;;;;2.00;0.80;;;14.30;92.50;;;;;;5029299;28;20624;-79
2022/09/18 11:58:04;;;;;;;0.53;0.50;;;14.40;93.90;;;;;;5022177;28;20662;-80
2022/09/18 12:00:40;;;;;;;0.30;0.30;;;14.40;92.30;;;;;;5022980;28;20653;-79
2022/09/18 12:03:17;;;;;;;0.30;0.20;;;14.40;92.20;;;;;;5027164;28;20627;-79
2022/09/18 12:05:52;;;;;;;0.50;0.50;;;14.40;90.90;;;;;;5025117;28;20627;-79
2022/09/18 12:08:28;;;;;;;0.97;0.87;;;13.80;88.70;;;;;;5029739;28;20958;-78
2022/09/18 12:11:08;;;;;;;0.40;0.33;;;14.20;90.20;;;;;;5031238;28;20623;-80
2022/09/18 12:13:47;;;;;;;0.30;0.20;;;14.00;90.70;;;;;;5031613;28;20654;-79
2022/09/18 12:16:20;;;;;;;0.33;0.33;;;13.80;90.30;;;;;;5031991;28;20677;-79
2022/09/18 12:18:55;;;;;;;0.40;0.30;;;13.80;86.60;;;;;;5030753;28;20712;-79
2022/09/18 12:21:31;;;;;;;0.60;0.60;;;14.20;88.40;;;;;;5032811;28;21244;-78
2022/09/18 12:23:58;;;;;;;0.83;0.50;;;13.80;89.20;;;;;;5029803;28;20835;-78
2022/09/18 12:26:31;;;;;;;0.40;0.40;;;13.80;88.20;;;;;;5030894;28;20996;-79
2022/09/18 12:29:12;;;;;;;0.60;0.60;;;13.80;88.30;;;;;;5029150;28;20779;-80
2022/09/18 12:31:49;;;;;;;0.37;0.37;;;13.90;91.60;;;;;;5030800;28;20632;-79
2022/09/18 12:34:25;;;;;;;1.73;0.77;;;14.10;91.10;;;;;;5028963;28;20626;-79
2022/09/18 12:37:22;;;;;;;0.40;0.20;;;14.00;88.30;;;;;;5030048;28;20667;-79
2022/09/18 12:40:15;;;;;;;1.70;0.40;;;14.10;84.80;;;;;;5018262;28;20731;-79
2022/09/18 12:42:52;;;;;;;0.40;0.23;;;14.10;85.00;;;;;;5032432;28;21210;-79
2022/09/18 12:45:51;;;;;;;0.40;0.40;;;14.20;86.10;;;;;;5030946;28;20615;-79
2022/09/18 12:48:34;;;;;;;0.77;0.60;;;14.00;86.20;;;;;;5030475;28;20616;-79
2022/09/18 12:51:14;;;;;;;0.60;0.40;;;14.10;85.00;;;;;;5030958;28;20630;-78
2022/09/18 12:53:50;;;;;;;0.30;0.20;;;14.10;85.30;;;;;;5031983;28;20688;-78
2022/09/18 12:56:32;;;;;;;0.87;0.80;;;14.00;83.40;;;;;;5027459;28;20630;-81
2022/09/18 12:59:28;;;;;;;0.53;0.53;;;14.50;83.10;;;;;;5032319;28;20628;-78
2022/09/18 13:02:01;;;;;;;0.60;0.40;;;14.50;83.50;;;;;;5022069;28;20664;-79
2022/09/18 13:04:32;;;;;;;0.50;0.33;;;14.50;81.10;;;;;;5028932;28;20649;-77
2022/09/18 13:07:07;;;;;;;0.37;0.30;;;14.50;82.50;;;;;;5030755;28;20618;-79
2022/09/18 13:09:39;;;;;;;0.70;0.53;;;14.60;83.30;;;;;;5030338;28;21274;-78
2022/09/18 13:12:14;;;;;;;0.50;0.30;;;14.50;82.90;;;;;;5034084;28;20635;-78
2022/09/18 13:14:46;;;;;;;0.50;0.50;;;14.50;81.50;;;;;;5030300;28;20622;-78
2022/09/18 13:17:17;;;;;;;0.30;0.30;;;14.40;80.60;;;;;;5025809;28;20623;-77
2022/09/18 13:19:52;;;;;;;0.80;0.50;;;14.30;81.40;;;;;;5028952;28;20627;-78
2022/09/18 13:22:21;;;;;;;1.23;1.23;;;14.30;81.50;;;;;;5027529;28;20658;-78
2022/09/18 13:24:52;;;;;;;0.50;0.50;;;14.30;80.60;;;;;;5029705;28;20642;-78